createdAt,value
2018-09-02T00:00:16.631Z,0
2018-09-02T00:01:26.793Z,0
2018-09-02T00:02:36.616Z,0
2018-09-02T00:03:46.713Z,0
2018-09-02T00:04:56.820Z,0
2018-09-02T00:06:06.884Z,0
2018-09-02T00:07:16.696Z,0
2018-09-02T00:08:26.834Z,0
2018-09-02T00:09:36.926Z,0
2018-09-02T00:10:47.022Z,0
2018-09-02T00:11:57.106Z,0
2018-09-02T00:13:07.201Z,0
2018-09-02T00:14:17.298Z,0
2018-09-02T00:15:27.118Z,0
2018-09-02T00:16:37.214Z,0
2018-09-02T00:17:47.032Z,0
2018-09-02T00:18:57.112Z,0
2018-09-02T00:20:07.208Z,0
2018-09-02T00:21:17.057Z,0
2018-09-02T00:22:26.879Z,0
2018-09-02T00:23:36.956Z,0
2018-09-02T00:24:47.056Z,0
2018-09-02T00:25:57.135Z,0
2018-09-02T00:27:07.230Z,0
2018-09-02T00:28:17.312Z,0
2018-09-02T00:29:27.404Z,0
2018-09-02T00:30:37.224Z,0
2018-09-02T00:31:47.305Z,0
2018-09-02T00:32:57.219Z,0
2018-09-02T00:34:07.713Z,0
2018-09-02T00:35:17.879Z,0
2018-09-02T00:36:27.779Z,0
2018-09-02T00:37:37.862Z,0
2018-09-02T00:38:47.965Z,0
2018-09-02T00:39:57.788Z,0
2018-09-02T00:41:07.851Z,0
2018-09-02T00:42:18.154Z,0
2018-09-02T00:43:27.977Z,0
2018-09-02T00:44:38.057Z,0
2018-09-02T00:45:47.656Z,0
2018-09-02T00:46:57.760Z,0
2018-09-02T00:48:08.098Z,0
2018-09-02T00:49:18.191Z,0
2018-09-02T00:50:28.282Z,0
2018-09-02T00:51:38.368Z,0
2018-09-02T00:52:48.181Z,0
2018-09-02T00:53:58.260Z,0
2018-09-02T00:55:08.082Z,0
2018-09-02T00:56:18.164Z,0
2018-09-02T00:57:28.247Z,0
2018-09-02T00:58:38.394Z,0
2018-09-02T00:59:48.501Z,0
2018-09-02T01:00:58.598Z,0
2018-09-02T01:02:08.709Z,0
2018-09-02T01:03:18.604Z,0
2018-09-02T01:04:28.707Z,0
2018-09-02T01:05:38.788Z,0
2018-09-02T01:06:48.615Z,0
2018-09-02T01:07:58.707Z,0
2018-09-02T01:09:08.798Z,0
2018-09-02T01:10:18.881Z,0
2018-09-02T01:11:28.983Z,0
2018-09-02T01:12:39.073Z,0
2018-09-02T01:13:49.160Z,0
2018-09-02T01:14:59.101Z,0
2018-09-02T01:16:08.913Z,0
2018-09-02T01:17:18.710Z,0
2018-09-02T01:18:28.782Z,0
2018-09-02T01:19:38.861Z,0
2018-09-02T01:20:51.386Z,0
2018-09-02T01:22:01.206Z,0
2018-09-02T01:23:11.250Z,0
2018-09-02T01:24:20.985Z,0
2018-09-02T01:25:30.808Z,0
2018-09-02T01:26:40.665Z,0
2018-09-02T01:27:50.473Z,0
2018-09-02T01:29:00.536Z,0
2018-09-02T01:30:10.357Z,0
2018-09-02T01:31:20.686Z,0
2018-09-02T01:32:30.548Z,0
2018-09-02T01:33:40.358Z,0
2018-09-02T01:34:50.454Z,0
2018-09-02T01:36:00.542Z,0
2018-09-02T01:37:10.633Z,0
2018-09-02T01:38:20.749Z,0
2018-09-02T01:39:30.848Z,0
2018-09-02T01:40:40.923Z,0
2018-09-02T01:41:50.998Z,0
2018-09-02T01:43:01.059Z,0
2018-09-02T01:48:57.336Z,0
2018-09-02T01:50:07.420Z,0
2018-09-02T01:51:17.513Z,0
2018-09-02T01:52:27.588Z,0
2018-09-02T01:53:37.441Z,0
2018-09-02T01:54:47.524Z,0
2018-09-02T01:55:57.622Z,0
2018-09-02T01:57:07.704Z,0
2018-09-02T01:58:17.524Z,0
2018-09-02T01:59:27.624Z,0
2018-09-02T02:00:37.701Z,0
2018-09-02T02:01:47.564Z,0
2018-09-02T02:02:57.659Z,0
2018-09-02T02:04:07.358Z,0
2018-09-02T02:05:17.255Z,0
2018-09-02T02:06:27.359Z,0
2018-09-02T02:07:37.429Z,0
2018-09-02T02:08:47.008Z,0
2018-09-02T02:09:57.093Z,0
2018-09-02T02:11:07.158Z,0
2018-09-02T02:12:17.308Z,0
2018-09-02T02:13:27.397Z,0
2018-09-02T02:14:37.481Z,0
2018-09-02T02:15:47.567Z,0
2018-09-02T02:16:57.638Z,0
2018-09-02T02:18:07.714Z,0
2018-09-02T02:19:18.041Z,0
2018-09-02T02:20:28.101Z,0
2018-09-02T02:21:38.185Z,0
2018-09-02T02:22:48.262Z,0
2018-09-02T02:23:58.351Z,0
2018-09-02T02:25:08.417Z,0
2018-09-02T02:26:18.494Z,0
2018-09-02T02:27:28.572Z,0
2018-09-02T02:28:38.646Z,0
2018-09-02T02:29:48.742Z,0
2018-09-02T02:30:58.842Z,0
2018-09-02T02:32:08.679Z,0
2018-09-02T02:33:18.498Z,0
2018-09-02T02:34:28.354Z,0
2018-09-02T02:35:38.451Z,0
2018-09-02T02:36:48.513Z,0
2018-09-02T02:37:58.601Z,0
2018-09-02T02:39:08.662Z,0
2018-09-02T02:40:18.738Z,0
2018-09-02T02:41:28.837Z,0
2018-09-02T02:42:38.933Z,0
2018-09-02T02:43:48.753Z,0
2018-09-02T02:44:58.572Z,0
2018-09-02T02:46:08.700Z,0
2018-09-02T02:47:18.783Z,0
2018-09-02T02:48:28.355Z,0
2018-09-02T02:49:38.418Z,0
2018-09-02T02:50:48.230Z,0
2018-09-02T02:51:58.352Z,0
2018-09-02T02:53:08.161Z,0
2018-09-02T02:54:17.989Z,0
2018-09-02T02:55:28.068Z,0
2018-09-02T02:56:38.149Z,0
2018-09-02T02:57:48.004Z,0
2018-09-02T02:58:57.825Z,0
2018-09-02T03:00:07.905Z,0
2018-09-02T03:01:17.991Z,0
2018-09-02T03:02:27.831Z,0
2018-09-02T03:35:05.403Z,0
2018-09-02T03:36:15.217Z,0
2018-09-02T03:37:25.056Z,0
2018-09-02T03:38:35.173Z,0
2018-09-02T03:39:45.271Z,0
2018-09-02T03:40:54.883Z,0
2018-09-02T03:42:04.695Z,0
2018-09-02T03:43:14.805Z,0
2018-09-02T03:44:24.611Z,0
2018-09-02T03:45:34.421Z,0
2018-09-02T03:46:44.537Z,0
2018-09-02T03:47:54.340Z,0
2018-09-02T03:49:04.422Z,0
2018-09-02T03:50:13.984Z,0
2018-09-02T03:51:24.119Z,0
2018-09-02T03:52:34.244Z,0
2018-09-02T03:53:43.812Z,0
2018-09-02T03:54:53.958Z,0
2018-09-02T03:56:04.322Z,0
2018-09-02T03:57:14.423Z,0
2018-09-02T03:58:24.601Z,0
2018-09-02T03:59:34.424Z,0
2018-09-02T04:00:44.521Z,0
2018-09-02T04:01:54.629Z,0
2018-09-02T04:03:04.720Z,0
2018-09-02T04:04:14.839Z,0
2018-09-02T04:05:24.941Z,0
2018-09-02T04:06:35.267Z,0
2018-09-02T04:07:45.387Z,0
2018-09-02T04:08:55.208Z,0
2018-09-02T04:10:05.322Z,0
2018-09-02T04:11:15.561Z,0
2018-09-02T04:12:25.706Z,0
2018-09-02T04:13:35.795Z,0
2018-09-02T04:14:45.598Z,0
2018-09-02T04:15:55.693Z,0
2018-09-02T04:17:05.769Z,0
2018-09-02T04:18:15.603Z,0
2018-09-02T04:19:25.690Z,0
2018-09-02T04:20:35.776Z,0
2018-09-02T04:21:45.910Z,0
2018-09-02T04:22:56.003Z,0
2018-09-02T04:24:06.070Z,0
2018-09-02T04:25:15.886Z,0
2018-09-02T04:26:25.718Z,5
2018-09-02T04:27:35.840Z,5
2018-09-02T04:28:45.921Z,5
2018-09-02T04:29:56.016Z,5
2018-09-02T04:31:06.090Z,5
2018-09-02T04:32:16.179Z,0
2018-09-02T04:33:26.061Z,5
2018-09-02T04:34:36.182Z,5
2018-09-02T04:35:46.252Z,5
2018-09-02T04:36:56.342Z,5
2018-09-02T04:38:06.424Z,5
2018-09-02T04:39:16.511Z,5
2018-09-02T04:40:26.595Z,5
2018-09-02T04:41:36.682Z,5
2018-09-02T04:42:46.775Z,5
2018-09-02T04:43:56.343Z,5
2018-09-02T04:45:06.643Z,5
2018-09-02T04:46:16.755Z,5
2018-09-02T04:47:26.853Z,10
2018-09-02T04:48:36.937Z,10
2018-09-02T04:49:47.012Z,15
2018-09-02T04:50:57.167Z,15
2018-09-02T04:52:06.986Z,25
2018-09-02T04:53:17.059Z,30
2018-09-02T04:54:27.641Z,30
2018-09-02T04:55:37.950Z,30
2018-09-02T04:56:48.244Z,25
2018-09-02T04:57:58.322Z,20
2018-09-02T04:59:07.887Z,15
2018-09-02T05:00:18.375Z,15
2018-09-02T05:01:28.470Z,15
2018-09-02T05:02:38.590Z,15
2018-09-02T05:03:48.152Z,15
2018-09-02T05:04:57.974Z,15
2018-09-02T05:06:08.082Z,15
2018-09-02T05:07:18.131Z,15
2018-09-02T05:08:27.954Z,15
2018-09-02T05:09:37.775Z,10
2018-09-02T05:10:47.337Z,15
2018-09-02T05:11:57.440Z,15
2018-09-02T05:13:07.253Z,15
2018-09-02T05:14:18.120Z,15
2018-09-02T05:15:28.245Z,20
2018-09-02T05:16:38.329Z,20
2018-09-02T05:17:48.407Z,20
2018-09-02T05:18:58.490Z,20
2018-09-02T05:20:08.578Z,25
2018-09-02T05:21:18.688Z,25
2018-09-02T05:22:28.505Z,25
2018-09-02T05:23:38.605Z,25
2018-09-02T05:24:48.702Z,30
2018-09-02T05:25:58.857Z,35
2018-09-02T05:27:08.951Z,35
2018-09-02T05:28:18.770Z,40
2018-09-02T05:29:28.596Z,40
2018-09-02T05:30:38.402Z,45
2018-09-02T05:31:48.529Z,45
2018-09-02T05:32:58.605Z,45
2018-09-02T05:34:08.679Z,45
2018-09-02T05:35:18.507Z,55
2018-09-02T05:36:28.324Z,60
2018-09-02T05:37:38.397Z,65
2018-09-02T05:38:48.470Z,60
2018-09-02T05:39:58.554Z,50
2018-09-02T05:41:08.625Z,45
2018-09-02T05:42:18.703Z,35
2018-09-02T05:43:28.776Z,35
2018-09-02T05:44:38.356Z,35
2018-09-02T05:45:48.460Z,35
2018-09-02T05:46:58.291Z,40
2018-09-02T05:48:08.380Z,40
2018-09-02T05:49:18.566Z,50
2018-09-02T05:50:28.913Z,55
2018-09-02T05:51:38.733Z,55
2018-09-02T05:52:48.558Z,60
2018-09-02T05:53:58.646Z,75
2018-09-02T05:55:08.787Z,80
2018-09-02T05:56:18.869Z,90
2018-09-02T05:57:28.842Z,95
2018-09-02T05:58:38.980Z,100
2018-09-02T05:59:49.070Z,100
2018-09-02T06:00:58.896Z,105
2018-09-02T06:02:09.007Z,125
2018-09-02T06:03:18.831Z,150
2018-09-02T06:04:28.918Z,130
2018-09-02T06:05:38.991Z,105
2018-09-02T06:06:49.079Z,95
2018-09-02T06:07:58.896Z,90
2018-09-02T06:09:08.726Z,90
2018-09-02T06:10:18.822Z,90
2018-09-02T06:11:28.639Z,95
2018-09-02T06:12:38.833Z,100
2018-09-02T06:13:48.906Z,115
2018-09-02T06:14:58.764Z,115
2018-09-02T06:16:08.857Z,120
2018-09-02T06:17:19.268Z,125
2018-09-02T06:18:29.421Z,125
2018-09-02T06:19:39.236Z,140
2018-09-02T06:20:49.060Z,150
2018-09-02T06:21:59.148Z,165
2018-09-02T06:23:09.225Z,170
2018-09-02T06:24:19.059Z,175
2018-09-02T06:25:29.154Z,185
2018-09-02T06:26:39.172Z,205
2018-09-02T06:27:49.254Z,205
2018-09-02T06:28:59.337Z,220
2018-09-02T06:30:09.869Z,225
2018-09-02T06:31:19.975Z,225
2018-09-02T06:32:30.296Z,225
2018-09-02T06:33:40.390Z,225
2018-09-02T06:34:50.219Z,225
2018-09-02T06:36:00.053Z,215
2018-09-02T06:37:10.186Z,210
2018-09-02T06:38:20.275Z,205
2018-09-02T06:39:30.373Z,200
2018-09-02T06:40:40.270Z,200
2018-09-02T06:41:50.377Z,205
2018-09-02T06:43:00.564Z,200
2018-09-02T06:44:10.867Z,200
2018-09-02T06:45:20.951Z,175
2018-09-02T06:46:30.755Z,150
2018-09-02T06:47:40.575Z,140
2018-09-02T06:48:50.643Z,140
2018-09-02T06:50:00.755Z,140
2018-09-02T06:51:10.564Z,135
2018-09-02T06:52:20.396Z,140
2018-09-02T06:53:30.508Z,140
2018-09-02T06:54:40.604Z,140
2018-09-02T06:55:50.693Z,150
2018-09-02T06:57:00.786Z,155
2018-09-02T06:58:10.870Z,150
2018-09-02T06:59:20.969Z,140
2018-09-02T07:00:31.051Z,125
2018-09-02T07:01:41.144Z,115
2018-09-02T07:02:51.214Z,110
2018-09-02T07:04:01.328Z,115
2018-09-02T07:05:11.469Z,120
2018-09-02T07:06:22.623Z,125
2018-09-02T07:07:32.995Z,120
2018-09-02T07:08:43.093Z,120
2018-09-02T07:09:53.200Z,125
2018-09-02T07:11:03.030Z,130
2018-09-02T07:12:12.907Z,145
2018-09-02T07:13:22.755Z,155
2018-09-02T07:14:32.966Z,165
2018-09-02T07:15:43.095Z,180
2018-09-02T07:16:53.224Z,185
2018-09-02T07:18:03.347Z,200
2018-09-02T07:19:14.074Z,205
2018-09-02T07:20:24.333Z,195
2018-09-02T07:21:34.411Z,180
2018-09-02T07:22:44.515Z,175
2018-09-02T07:23:54.599Z,175
2018-09-02T07:25:04.681Z,180
2018-09-02T07:26:14.758Z,185
2018-09-02T07:27:24.588Z,190
2018-09-02T07:28:34.742Z,185
2018-09-02T07:29:44.839Z,180
2018-09-02T07:30:54.663Z,175
2018-09-02T07:32:04.785Z,170
2018-09-02T07:33:14.623Z,170
2018-09-02T07:34:24.724Z,170
2018-09-02T07:35:34.844Z,170
2018-09-02T07:36:44.930Z,180
2018-09-02T07:37:55.029Z,185
2018-09-02T07:39:05.198Z,195
2018-09-02T07:40:15.292Z,190
2018-09-02T07:41:25.445Z,195
2018-09-02T07:42:35.537Z,205
2018-09-02T07:43:45.717Z,210
2018-09-02T07:44:55.970Z,225
2018-09-02T07:46:06.066Z,255
2018-09-02T07:47:16.207Z,275
2018-09-02T07:48:26.311Z,275
2018-09-02T07:49:36.469Z,265
2018-09-02T07:50:46.575Z,255
2018-09-02T07:51:56.668Z,240
2018-09-02T07:53:06.774Z,240
2018-09-02T07:54:16.852Z,250
2018-09-02T07:55:26.943Z,235
2018-09-02T07:56:36.755Z,215
2018-09-02T07:57:46.882Z,200
2018-09-02T07:58:56.977Z,185
2018-09-02T08:00:06.828Z,185
2018-09-02T08:01:16.907Z,190
2018-09-02T08:02:27.006Z,205
2018-09-02T08:03:37.092Z,215
2018-09-02T08:04:47.188Z,235
2018-09-02T08:05:57.024Z,270
2018-09-02T08:07:07.131Z,285
2018-09-02T08:08:17.214Z,280
2018-09-02T08:09:27.328Z,250
2018-09-02T08:10:36.950Z,230
2018-09-02T08:11:46.770Z,235
2018-09-02T08:12:57.278Z,255
2018-09-02T08:14:07.523Z,225
2018-09-02T08:15:17.609Z,245
2018-09-02T08:16:27.159Z,245
2018-09-02T08:17:36.724Z,235
2018-09-02T08:18:46.821Z,235
2018-09-02T08:19:56.978Z,240
2018-09-02T08:21:06.919Z,235
2018-09-02T08:22:16.793Z,240
2018-09-02T08:23:26.941Z,245
2018-09-02T08:24:37.042Z,235
2018-09-02T08:25:47.133Z,220
2018-09-02T08:26:57.384Z,225
2018-09-02T08:28:07.784Z,250
2018-09-02T08:29:17.872Z,265
2018-09-02T08:30:27.718Z,270
2018-09-02T08:31:37.537Z,265
2018-09-02T08:32:47.370Z,265
2018-09-02T08:33:57.485Z,255
2018-09-02T08:35:07.315Z,225
2018-09-02T08:36:17.145Z,210
2018-09-02T08:37:27.244Z,190
2018-09-02T08:38:37.388Z,180
2018-09-02T08:39:47.557Z,180
2018-09-02T08:40:57.660Z,180
2018-09-02T08:42:07.807Z,180
2018-09-02T08:43:17.914Z,190
2018-09-02T08:44:28.722Z,200
2018-09-02T08:45:38.834Z,225
2018-09-02T08:46:48.947Z,240
2018-09-02T08:47:58.847Z,260
2018-09-02T08:49:09.021Z,260
2018-09-02T08:50:19.203Z,260
2018-09-02T08:51:29.593Z,270
2018-09-02T08:52:39.433Z,290
2018-09-02T08:53:49.538Z,265
2018-09-02T08:54:59.408Z,235
2018-09-02T08:56:10.200Z,215
2018-09-02T08:57:20.326Z,195
2018-09-02T08:58:30.454Z,195
2018-09-02T08:59:40.571Z,195
2018-09-02T09:00:50.672Z,195
2018-09-02T09:02:00.780Z,190
2018-09-02T09:03:11.130Z,190
2018-09-02T09:04:20.993Z,185
2018-09-02T09:05:30.820Z,180
2018-09-02T09:06:40.933Z,185
2018-09-02T09:07:52.548Z,175
2018-09-02T09:09:04.429Z,175
2018-09-02T09:10:14.753Z,185
2018-09-02T09:11:24.887Z,185
2018-09-02T09:12:35.513Z,200
2018-09-02T09:14:05.002Z,220
2018-09-02T09:15:15.157Z,210
2018-09-02T09:16:25.644Z,200
2018-09-02T09:17:35.766Z,175
2018-09-02T09:18:45.872Z,160
2018-09-02T09:19:55.950Z,145
2018-09-02T09:21:06.073Z,135
2018-09-02T09:22:16.255Z,135
2018-09-02T09:23:26.379Z,145
2018-09-02T09:24:36.489Z,160
2018-09-02T09:25:46.625Z,185
2018-09-02T09:26:56.480Z,205
2018-09-02T09:28:06.063Z,210
2018-09-02T09:29:16.467Z,210
2018-09-02T09:30:26.549Z,205
2018-09-02T09:31:36.712Z,205
2018-09-02T09:32:46.818Z,200
2018-09-02T09:33:56.921Z,205
2018-09-02T09:35:07.031Z,210
2018-09-02T09:36:17.156Z,230
2018-09-02T09:37:27.312Z,235
2018-09-02T09:38:37.183Z,245
2018-09-02T09:39:47.283Z,250
2018-09-02T09:40:57.149Z,255
2018-09-02T09:42:07.259Z,250
2018-09-02T09:43:17.437Z,245
2018-09-02T09:44:27.563Z,220
2018-09-02T09:45:37.772Z,185
2018-09-02T09:46:47.858Z,160
2018-09-02T09:47:57.689Z,135
2018-09-02T09:49:07.774Z,125
2018-09-02T09:50:17.933Z,110
2018-09-02T09:51:28.082Z,110
2018-09-02T09:52:38.188Z,115
2018-09-02T09:53:48.334Z,120
2018-09-02T09:54:58.445Z,120
2018-09-02T09:56:08.589Z,115
2018-09-02T09:57:18.990Z,110
2018-09-02T09:58:28.848Z,100
2018-09-02T09:59:38.686Z,95
2018-09-02T10:00:48.803Z,90
2018-09-02T10:01:59.004Z,85
2018-09-02T10:03:09.155Z,75
2018-09-02T10:04:18.999Z,65
2018-09-02T10:05:28.835Z,55
2018-09-02T10:06:38.419Z,50
2018-09-02T10:07:48.514Z,50
2018-09-02T10:08:58.603Z,50
2018-09-02T10:10:08.843Z,45
2018-09-02T10:11:18.934Z,45
2018-09-02T10:12:29.050Z,45
2018-09-02T10:13:39.156Z,50
2018-09-02T10:14:49.263Z,50
2018-09-02T10:15:59.099Z,50
2018-09-02T10:17:09.077Z,55
2018-09-02T10:18:19.967Z,55
2018-09-02T10:19:29.861Z,60
2018-09-02T10:20:39.490Z,65
2018-09-02T10:21:49.332Z,75
2018-09-02T10:22:59.180Z,85
2018-09-02T10:24:09.295Z,95
2018-09-02T10:25:19.162Z,105
2018-09-02T10:26:29.274Z,120
2018-09-02T10:27:40.074Z,140
2018-09-02T10:28:50.191Z,155
2018-09-02T10:30:00.045Z,160
2018-09-02T10:31:10.153Z,160
2018-09-02T10:32:20.271Z,140
2018-09-02T10:33:31.000Z,130
2018-09-02T10:34:41.991Z,130
2018-09-02T10:35:52.200Z,125
2018-09-02T10:37:02.330Z,115
2018-09-02T10:38:12.481Z,100
2018-09-02T10:39:22.338Z,80
2018-09-02T10:40:32.482Z,65
2018-09-02T10:41:42.936Z,50
2018-09-02T10:42:53.091Z,40
2018-09-02T10:44:03.252Z,35
2018-09-02T10:45:13.406Z,35
2018-09-02T10:46:23.554Z,35
2018-09-02T10:47:33.668Z,40
2018-09-02T10:48:43.544Z,50
2018-09-02T10:49:53.896Z,55
2018-09-02T10:51:04.083Z,60
2018-09-02T10:52:14.205Z,60
2018-09-02T10:53:24.361Z,55
2018-09-02T10:54:34.227Z,50
2018-09-02T10:55:44.409Z,50
2018-09-02T10:56:54.310Z,55
2018-09-02T10:58:04.137Z,60
2018-09-02T10:59:14.227Z,70
2018-09-02T11:00:24.338Z,75
2018-09-02T11:01:34.185Z,80
2018-09-02T11:02:44.352Z,80
2018-09-02T11:03:54.241Z,85
2018-09-02T11:05:04.373Z,85
2018-09-02T11:06:14.232Z,85
2018-09-02T11:07:24.089Z,90
2018-09-02T11:08:34.117Z,85
2018-09-02T11:09:44.448Z,85
2018-09-02T11:10:54.317Z,70
2018-09-02T11:12:04.195Z,60
2018-09-02T11:13:14.983Z,55
2018-09-02T11:14:25.171Z,50
2018-09-02T11:15:35.294Z,50
2018-09-02T11:16:45.416Z,50
2018-09-02T11:17:55.528Z,40
2018-09-02T11:19:05.687Z,30
2018-09-02T11:20:15.317Z,30
2018-09-02T11:21:25.160Z,30
2018-09-02T11:22:35.272Z,35
2018-09-02T11:23:45.396Z,35
2018-09-02T11:24:55.536Z,35
2018-09-02T11:26:05.713Z,30
2018-09-02T11:27:15.568Z,25
2018-09-02T11:28:25.706Z,25
2018-09-02T11:29:35.823Z,25
2018-09-02T11:30:45.934Z,25
2018-09-02T11:31:55.636Z,25
2018-09-02T11:33:05.712Z,25
2018-09-02T11:34:16.894Z,30
2018-09-02T11:35:27.035Z,30
2018-09-02T11:36:37.110Z,30
2018-09-02T11:37:46.984Z,35
2018-09-02T11:38:57.093Z,40
2018-09-02T11:40:07.162Z,45
2018-09-02T11:41:17.298Z,50
2018-09-02T11:42:27.148Z,55
2018-09-02T11:43:37.248Z,60
2018-09-02T11:44:47.373Z,55
2018-09-02T11:45:57.530Z,55
2018-09-02T11:47:08.509Z,55
2018-09-02T11:48:18.689Z,55
2018-09-02T11:49:28.913Z,50
2018-09-02T11:50:39.072Z,45
2018-09-02T11:51:49.246Z,40
2018-09-02T11:52:59.420Z,35
2018-09-02T11:54:09.324Z,30
2018-09-02T11:55:19.492Z,25
2018-09-02T11:56:29.326Z,25
2018-09-02T11:57:39.637Z,25
2018-09-02T11:58:49.864Z,25
2018-09-02T12:00:00.023Z,25
2018-09-02T12:01:11.573Z,25
2018-09-02T12:02:21.716Z,20
2018-09-02T12:03:31.845Z,20
2018-09-02T12:04:42.169Z,20
2018-09-02T12:05:52.007Z,25
2018-09-02T12:07:02.174Z,25
2018-09-02T12:08:12.275Z,35
2018-09-02T12:09:22.407Z,40
2018-09-02T12:10:32.328Z,50
2018-09-02T12:11:42.368Z,60
2018-09-02T12:12:52.565Z,70
2018-09-02T12:14:03.003Z,75
2018-09-02T12:15:12.619Z,80
2018-09-02T12:16:22.744Z,85
2018-09-02T12:17:32.838Z,90
2018-09-02T12:18:42.700Z,105
2018-09-02T12:19:52.812Z,120
2018-09-02T12:21:03.296Z,130
2018-09-02T12:22:13.171Z,135
2018-09-02T12:23:23.277Z,135
2018-09-02T12:24:33.377Z,115
2018-09-02T12:25:43.485Z,100
2018-09-02T12:26:53.609Z,95
2018-09-02T12:28:03.713Z,90
2018-09-02T12:29:13.825Z,90
2018-09-02T12:30:24.000Z,80
2018-09-02T12:31:34.456Z,65
2018-09-02T12:32:44.576Z,55
2018-09-02T12:33:54.443Z,50
2018-09-02T12:35:04.538Z,45
2018-09-02T12:36:14.463Z,45
2018-09-02T12:37:24.299Z,45
2018-09-02T12:38:34.418Z,50
2018-09-02T12:39:44.284Z,50
2018-09-02T12:40:54.113Z,50
2018-09-02T12:42:04.109Z,55
2018-09-02T12:43:14.243Z,55
2018-09-02T12:44:24.354Z,60
2018-09-02T12:45:34.227Z,65
2018-09-02T12:46:44.319Z,65
2018-09-02T12:47:55.320Z,75
2018-09-02T12:49:05.514Z,85
2018-09-02T12:50:15.352Z,105
2018-09-02T12:51:25.462Z,120
2018-09-02T12:52:35.562Z,145
2018-09-02T12:53:45.969Z,165
2018-09-02T12:54:56.084Z,180
2018-09-02T12:56:06.197Z,180
2018-09-02T12:57:16.321Z,175
2018-09-02T12:58:26.445Z,170
2018-09-02T12:59:36.293Z,165
2018-09-02T13:00:46.379Z,160
2018-09-02T13:01:56.013Z,160
2018-09-02T13:03:06.298Z,145
2018-09-02T13:04:16.474Z,135
2018-09-02T13:05:26.321Z,130
2018-09-02T13:06:36.444Z,120
2018-09-02T13:07:46.277Z,115
2018-09-02T13:08:56.387Z,100
2018-09-02T13:10:06.477Z,85
2018-09-02T13:11:16.877Z,65
2018-09-02T13:12:26.983Z,50
2018-09-02T13:13:37.103Z,40
2018-09-02T13:14:47.182Z,30
2018-09-02T13:15:57.050Z,25
2018-09-02T13:17:07.183Z,25
2018-09-02T13:18:17.333Z,25
2018-09-02T13:19:27.482Z,25
2018-09-02T13:20:37.347Z,20
2018-09-02T13:21:47.452Z,20
2018-09-02T13:22:57.301Z,20
2018-09-02T13:24:08.107Z,15
2018-09-02T13:25:18.204Z,20
2018-09-02T13:26:28.314Z,20
2018-09-02T13:27:38.176Z,20
2018-09-02T13:28:47.824Z,20
2018-09-02T13:29:58.178Z,20
2018-09-02T13:31:08.267Z,20
2018-09-02T13:32:18.367Z,20
2018-09-02T13:33:28.507Z,20
2018-09-02T13:34:38.092Z,20
2018-09-02T13:35:48.218Z,20
2018-09-02T13:36:58.534Z,20
2018-09-02T13:38:08.380Z,25
2018-09-02T13:39:18.536Z,25
2018-09-02T13:40:29.378Z,25
2018-09-02T13:41:39.689Z,25
2018-09-02T13:42:49.253Z,25
2018-09-02T13:43:58.836Z,25
2018-09-02T13:45:09.023Z,25
2018-09-02T13:46:19.169Z,25
2018-09-02T13:47:28.757Z,30
2018-09-02T13:48:39.104Z,35
2018-09-02T13:49:48.957Z,40
2018-09-02T13:50:59.040Z,45
2018-09-02T13:52:09.143Z,45
2018-09-02T13:53:19.249Z,45
2018-09-02T13:54:29.419Z,40
2018-09-02T13:55:39.538Z,35
2018-09-02T13:56:49.848Z,30
2018-09-02T13:57:59.991Z,25
2018-09-02T13:59:10.422Z,20
2018-09-02T14:00:20.526Z,20
2018-09-02T14:01:30.623Z,20
2018-09-02T14:02:40.732Z,15
2018-09-02T14:03:50.842Z,15
2018-09-02T14:05:00.932Z,20
2018-09-02T14:06:10.764Z,25
2018-09-02T14:07:20.358Z,30
2018-09-02T14:08:30.380Z,30
2018-09-02T14:09:40.471Z,25
2018-09-02T14:10:50.317Z,25
2018-09-02T14:12:00.656Z,20
2018-09-02T14:13:10.748Z,20
2018-09-02T14:14:20.863Z,20
2018-09-02T14:15:31.069Z,20
2018-09-02T14:16:40.662Z,15
2018-09-02T14:17:51.195Z,15
2018-09-02T14:19:01.438Z,15
2018-09-02T14:20:11.726Z,10
2018-09-02T14:21:21.877Z,10
2018-09-02T14:22:31.940Z,5
2018-09-02T14:23:42.201Z,5
2018-09-02T14:24:52.516Z,5
2018-09-02T14:26:02.555Z,5
2018-09-02T14:27:13.086Z,10
2018-09-02T14:28:23.815Z,10
2018-09-02T14:29:34.185Z,10
2018-09-02T14:30:44.611Z,10
2018-09-02T14:31:55.224Z,5
2018-09-02T14:33:05.886Z,5
2018-09-02T14:34:15.508Z,5
2018-09-02T14:35:25.655Z,5
2018-09-02T14:36:35.765Z,5
2018-09-02T14:37:45.827Z,5
2018-09-02T14:38:55.946Z,5
2018-09-02T14:40:06.042Z,10
2018-09-02T14:41:15.904Z,10
2018-09-02T14:42:26.017Z,10
2018-09-02T14:43:35.845Z,10
2018-09-02T14:44:45.978Z,15
2018-09-02T14:45:56.085Z,20
2018-09-02T14:47:05.921Z,30
2018-09-02T14:48:16.064Z,45
2018-09-02T14:49:26.158Z,55
2018-09-02T14:50:36.040Z,60
2018-09-02T14:51:46.167Z,60
2018-09-02T14:52:56.297Z,55
2018-09-02T14:54:06.391Z,55
2018-09-02T14:55:15.736Z,55
2018-09-02T14:56:25.551Z,55
2018-09-02T14:57:35.647Z,50
2018-09-02T14:58:45.733Z,50
2018-09-02T14:59:55.801Z,50
2018-09-02T15:01:05.645Z,50
2018-09-02T15:02:15.758Z,45
2018-09-02T15:03:25.631Z,40
2018-09-02T15:04:35.736Z,30
2018-09-02T15:05:45.856Z,25
2018-09-02T15:06:56.181Z,20
2018-09-02T15:08:06.354Z,20
2018-09-02T15:09:16.458Z,20
2018-09-02T15:10:26.555Z,20
2018-09-02T15:11:37.104Z,20
2018-09-02T15:12:47.220Z,25
2018-09-02T15:13:57.317Z,30
2018-09-02T15:15:07.154Z,35
2018-09-02T15:16:17.237Z,35
2018-09-02T15:17:27.347Z,45
2018-09-02T15:18:37.476Z,60
2018-09-02T15:19:47.328Z,75
2018-09-02T15:20:57.187Z,90
2018-09-02T15:22:07.308Z,95
2018-09-02T15:23:17.436Z,90
2018-09-02T15:24:27.538Z,85
2018-09-02T15:25:37.667Z,80
2018-09-02T15:26:47.497Z,75
2018-09-02T15:27:57.342Z,75
2018-09-02T15:29:08.143Z,80
2018-09-02T15:30:18.238Z,85
2018-09-02T15:31:28.096Z,90
2018-09-02T15:32:38.512Z,90
2018-09-02T15:33:48.342Z,95
2018-09-02T15:34:58.453Z,100
2018-09-02T15:36:08.569Z,120
2018-09-02T15:37:18.430Z,115
2018-09-02T15:38:28.544Z,110
2018-09-02T15:39:38.769Z,105
2018-09-02T15:40:48.909Z,105
2018-09-02T15:41:59.286Z,105
2018-09-02T15:43:09.454Z,100
2018-09-02T15:44:20.057Z,90
2018-09-02T15:45:30.723Z,85
2018-09-02T15:46:40.831Z,85
2018-09-02T15:47:50.938Z,85
2018-09-02T15:49:01.112Z,85
2018-09-02T15:50:11.259Z,85
2018-09-02T15:51:21.394Z,90
2018-09-02T15:52:31.578Z,95
2018-09-02T15:53:41.458Z,95
2018-09-02T15:54:51.616Z,95
2018-09-02T15:56:01.749Z,90
2018-09-02T15:57:11.636Z,85
2018-09-02T15:58:21.758Z,75
2018-09-02T15:59:31.923Z,70
2018-09-02T16:00:42.080Z,70
2018-09-02T16:01:52.243Z,70
2018-09-02T16:03:02.379Z,70
2018-09-02T16:04:12.496Z,65
2018-09-02T16:05:23.014Z,65
2018-09-02T16:06:33.573Z,65
2018-09-02T16:07:44.081Z,65
2018-09-02T16:08:54.199Z,65
2018-09-02T16:10:04.323Z,65
2018-09-02T16:11:14.493Z,65
2018-09-02T16:12:24.765Z,65
2018-09-02T16:13:35.006Z,65
2018-09-02T16:14:45.335Z,65
2018-09-02T16:15:55.512Z,65
2018-09-02T16:17:05.646Z,65
2018-09-02T16:18:15.795Z,60
2018-09-02T16:19:25.648Z,60
2018-09-02T16:20:35.793Z,60
2018-09-02T16:21:46.158Z,60
2018-09-02T16:22:56.007Z,60
2018-09-02T16:24:06.045Z,55
2018-09-02T16:25:16.210Z,55
2018-09-02T16:26:26.083Z,55
2018-09-02T16:27:36.247Z,50
2018-09-02T16:28:46.342Z,50
2018-09-02T16:29:56.773Z,50
2018-09-02T16:31:06.643Z,45
2018-09-02T16:32:16.781Z,45
2018-09-02T16:33:26.938Z,45
2018-09-02T16:34:37.048Z,45
2018-09-02T16:35:46.962Z,40
2018-09-02T16:36:56.798Z,40
2018-09-02T16:38:06.926Z,40
2018-09-02T16:39:17.065Z,35
2018-09-02T16:40:27.170Z,35
2018-09-02T16:41:37.902Z,35
2018-09-02T16:42:48.064Z,35
2018-09-02T16:43:57.916Z,35
2018-09-02T16:45:08.583Z,35
2018-09-02T16:46:19.002Z,35
2018-09-02T16:47:29.153Z,35
2018-09-02T16:48:38.780Z,35
2018-09-02T16:49:48.953Z,35
2018-09-02T16:50:59.138Z,35
2018-09-02T16:52:09.092Z,30
2018-09-02T16:53:19.351Z,30
2018-09-02T16:54:29.515Z,30
2018-09-02T16:55:39.670Z,30
2018-09-02T16:56:49.839Z,30
2018-09-02T16:57:59.969Z,30
2018-09-02T16:59:10.198Z,25
2018-09-02T17:00:20.356Z,25
2018-09-02T17:01:30.447Z,25
2018-09-02T17:02:40.763Z,25
2018-09-02T17:03:50.906Z,25
2018-09-02T17:05:01.097Z,20
2018-09-02T17:06:11.248Z,20
2018-09-02T17:07:21.489Z,20
2018-09-02T17:08:31.640Z,20
2018-09-02T17:09:41.772Z,20
2018-09-02T17:10:51.699Z,20
2018-09-02T17:12:02.287Z,15
2018-09-02T17:13:12.499Z,15
2018-09-02T17:14:22.556Z,15